Blue Ridge Highway — 3FEY4 — position and weather

sailwx.info

Track history (hours):
 
Tides and Currents Weather Stations Pressure Air Temp Water Temp Dewpoint Dewpoint Depression Visibility Wind Speed Wind Dir Waves Ship Positions

Blue Ridge Highway

Last reported at 2016-May-23 01:19 UTC. Time now 2016-May-31 04:04 UTC.
Position N 02°04' E 102°07'.
Warning: this ship's position is 8 days out of date.

Length 180 m; draft 8.2 m.

Type: Cargo ship. MMSI: 355558000.

Date/timePositionNaut miles runAvg speedWind from/ knotsBaromVisibWave heightAir tempDewpointWater temp
2016-May-23 01:19N 02°04' E 102°07'1316.4
2016-May-23 00:33N 01°57' E 102°17'1716.9
2016-May-22 23:33N 01°49' E 102°32'2017.9
2016-May-22 22:28N 01°42' E 102°50'1818.5
2016-May-22 21:28N 01°32' E 103°05'3417.9
2016-May-22 19:33N 01°12' E 103°34'1414.1
2016-May-22 18:32N 01°10' E 103°48'5 4.7
2016-May-22 17:33N 01°15' E 103°48'0 0.4
2016-May-22 16:32N 01°15' E 103°48'0 0.1
2016-May-22 15:32N 01°15' E 103°48'0 0.0
2016-May-22 14:29N 01°15' E 103°48'0 0.0
2016-May-22 13:29N 01°15' E 103°48'0 0.1
2016-May-22 11:32N 01°15' E 103°48'0 0.0
2016-May-22 10:17N 01°15' E 103°48'0 0.0
2016-May-22 09:32N 01°15' E 103°48'0 0.0
2016-May-22 08:23N 01°15' E 103°48'0 0.0
2016-May-22 07:11N 01°15' E 103°48'0 0.0
2016-May-22 06:29N 01°15' E 103°48'1 1.3
2016-May-22 05:33N 01°15' E 103°47'3 2.6
2016-May-22 04:33N 01°17' E 103°45'0 0.0
2016-May-22 03:30N 01°17' E 103°45'0 0.0
2016-May-22 02:30N 01°17' E 103°45'0 0.0
2016-May-22 01:24N 01°17' E 103°45'0 0.0
2016-May-22 00:30N 01°17' E 103°45'0 0.0
2016-May-21 23:30N 01°17' E 103°45'0 0.0
2016-May-21 22:30N 01°17' E 103°45'0 0.0
2016-May-21 21:30N 01°17' E 103°45'0 0.0
2016-May-21 20:30N 01°17' E 103°45'0 0.2
2016-May-21 19:33N 01°17' E 103°45'7 7.4
2016-May-21 18:33N 01°12' E 103°51'7 7.0
2016-May-21 17:33N 01°15' E 103°57'9 8.8
2016-May-21 16:33N 01°16' E 104°06'  
2016-May-17 05:19N 24°26' E 119°13'  
Track history (hours):
 
Tides and Currents Weather Stations Pressure Air Temp Water Temp Dewpoint Dewpoint Depression Visibility Wind Speed Wind Dir Waves Ship Positions

Blue Ridge Highway

Last reported at 2016-May-23 01:19 UTC. Time now 2016-May-31 04:04 UTC.
Position N 02°04' E 102°07'.
Warning: this ship's position is 8 days out of date.

Length 180 m; draft 8.2 m.

Type: Cargo ship. MMSI: 355558000.

Date/timePositionNaut miles runAvg speedWind from/ knotsBaromVisibWave heightAir tempDewpointWater temp
2016-May-23 01:19N 02°04' E 102°07'1316.4
2016-May-23 00:33N 01°57' E 102°17'1716.9
2016-May-22 23:33N 01°49' E 102°32'2017.9
2016-May-22 22:28N 01°42' E 102°50'1818.5
2016-May-22 21:28N 01°32' E 103°05'3417.9
2016-May-22 19:33N 01°12' E 103°34'1414.1
2016-May-22 18:32N 01°10' E 103°48'5 4.7
2016-May-22 17:33N 01°15' E 103°48'0 0.4
2016-May-22 16:32N 01°15' E 103°48'0 0.1
2016-May-22 15:32N 01°15' E 103°48'0 0.0
2016-May-22 14:29N 01°15' E 103°48'0 0.0
2016-May-22 13:29N 01°15' E 103°48'0 0.1
2016-May-22 11:32N 01°15' E 103°48'0 0.0
2016-May-22 10:17N 01°15' E 103°48'0 0.0
2016-May-22 09:32N 01°15' E 103°48'0 0.0
2016-May-22 08:23N 01°15' E 103°48'0 0.0
2016-May-22 07:11N 01°15' E 103°48'0 0.0
2016-May-22 06:29N 01°15' E 103°48'1 1.3
2016-May-22 05:33N 01°15' E 103°47'3 2.6
2016-May-22 04:33N 01°17' E 103°45'0 0.0
2016-May-22 03:30N 01°17' E 103°45'0 0.0
2016-May-22 02:30N 01°17' E 103°45'0 0.0
2016-May-22 01:24N 01°17' E 103°45'0 0.0
2016-May-22 00:30N 01°17' E 103°45'0 0.0
2016-May-21 23:30N 01°17' E 103°45'0 0.0
2016-May-21 22:30N 01°17' E 103°45'0 0.0
2016-May-21 21:30N 01°17' E 103°45'0 0.0
2016-May-21 20:30N 01°17' E 103°45'0 0.2
2016-May-21 19:33N 01°17' E 103°45'7 7.4
2016-May-21 18:33N 01°12' E 103°51'7 7.0
2016-May-21 17:33N 01°15' E 103°57'9 8.8
2016-May-21 16:33N 01°16' E 104°06'  
2016-May-17 05:19N 24°26' E 119°13'  

Dump ship's entire track history